sensor_id;sensor_type;location;lat;lon;timestamp;pressure;altitude;pressure_sealevel;temperature
77355;BMP280;66422;51.202;19.936;2023-04-25T00:04:29;98256.89;;;14.10
77355;BMP280;66422;51.202;19.936;2023-04-25T00:19:48;98252.09;;;13.87
77355;BMP280;66422;51.202;19.936;2023-04-25T00:35:09;98244.59;;;13.23
77355;BMP280;66422;51.202;19.936;2023-04-25T00:50:30;98247.19;;;12.86
77355;BMP280;66422;51.202;19.936;2023-04-25T01:05:50;98251.94;;;12.28
77355;BMP280;66422;51.202;19.936;2023-04-25T01:21:11;98259.63;;;12.16
77355;BMP280;66422;51.202;19.936;2023-04-25T01:36:33;98255.14;;;11.98
77355;BMP280;66422;51.202;19.936;2023-04-25T01:51:54;98264.13;;;12.17
77355;BMP280;66422;51.202;19.936;2023-04-25T02:07:14;98263.51;;;12.08
77355;BMP280;66422;51.202;19.936;2023-04-25T02:22:42;98258.23;;;11.93
77355;BMP280;66422;51.202;19.936;2023-04-25T02:38:02;98265.42;;;11.90
77355;BMP280;66422;51.202;19.936;2023-04-25T02:53:22;98251.00;;;11.76
77355;BMP280;66422;51.202;19.936;2023-04-25T03:08:43;98256.70;;;11.65
77355;BMP280;66422;51.202;19.936;2023-04-25T03:24:04;98250.86;;;11.66
77355;BMP280;66422;51.202;19.936;2023-04-25T03:39:24;98256.74;;;11.52
77355;BMP280;66422;51.202;19.936;2023-04-25T03:54:45;98261.70;;;11.24
77355;BMP280;66422;51.202;19.936;2023-04-25T04:10:10;98270.85;;;11.12
77355;BMP280;66422;51.202;19.936;2023-04-25T04:25:32;98286.45;;;11.03
77355;BMP280;66422;51.202;19.936;2023-04-25T04:41:11;98300.13;;;10.98
77355;BMP280;66422;51.202;19.936;2023-04-25T04:56:50;98310.39;;;11.01
77355;BMP280;66422;51.202;19.936;2023-04-25T05:12:31;98319.58;;;11.01
77355;BMP280;66422;51.202;19.936;2023-04-25T05:28:13;98317.08;;;10.90
77355;BMP280;66422;51.202;19.936;2023-04-25T05:43:33;98332.08;;;10.82
77355;BMP280;66422;51.202;19.936;2023-04-25T05:59:04;98336.52;;;10.93
77355;BMP280;66422;51.202;19.936;2023-04-25T06:14:23;98344.02;;;11.41
77355;BMP280;66422;51.202;19.936;2023-04-25T06:29:44;98352.44;;;10.89
77355;BMP280;66422;51.202;19.936;2023-04-25T06:45:04;98362.98;;;10.71
77355;BMP280;66422;51.202;19.936;2023-04-25T07:00:23;98368.42;;;10.58
77355;BMP280;66422;51.202;19.936;2023-04-25T07:15:43;98368.40;;;10.46
77355;BMP280;66422;51.202;19.936;2023-04-25T07:31:04;98376.10;;;10.54
77355;BMP280;66422;51.202;19.936;2023-04-25T07:46:25;98380.98;;;11.05
77355;BMP280;66422;51.202;19.936;2023-04-25T08:01:45;98387.02;;;11.11
77355;BMP280;66422;51.202;19.936;2023-04-25T08:17:06;98378.60;;;11.03
77355;BMP280;66422;51.202;19.936;2023-04-25T08:32:27;98385.73;;;11.30
77355;BMP280;66422;51.202;19.936;2023-04-25T08:48:00;98392.89;;;11.58
77355;BMP280;66422;51.202;19.936;2023-04-25T09:03:20;98414.09;;;11.95
77355;BMP280;66422;51.202;19.936;2023-04-25T09:18:40;98415.25;;;12.25
77355;BMP280;66422;51.202;19.936;2023-04-25T09:34:01;98422.27;;;12.39
77355;BMP280;66422;51.202;19.936;2023-04-25T09:49:21;98432.27;;;12.32
77355;BMP280;66422;51.202;19.936;2023-04-25T10:04:50;98445.52;;;11.95
77355;BMP280;66422;51.202;19.936;2023-04-25T10:20:19;98447.61;;;12.22
77355;BMP280;66422;51.202;19.936;2023-04-25T10:35:39;98437.67;;;12.06
77355;BMP280;66422;51.202;19.936;2023-04-25T11:22:17;98421.02;;;13.40
77355;BMP280;66422;51.202;19.936;2023-04-25T11:37:41;98430.98;;;13.45
77355;BMP280;66422;51.202;19.936;2023-04-25T11:53:01;98435.36;;;12.98
77355;BMP280;66422;51.202;19.936;2023-04-25T12:08:21;98441.20;;;12.83
77355;BMP280;66422;51.202;19.936;2023-04-25T12:23:40;98420.89;;;12.92
77355;BMP280;66422;51.202;19.936;2023-04-25T12:39:01;98422.22;;;12.80
77355;BMP280;66422;51.202;19.936;2023-04-25T12:54:23;98431.75;;;12.63
77355;BMP280;66422;51.202;19.936;2023-04-25T13:09:44;98431.25;;;12.84
77355;BMP280;66422;51.202;19.936;2023-04-25T13:25:06;98426.41;;;12.71
77355;BMP280;66422;51.202;19.936;2023-04-25T13:40:27;98415.65;;;13.05
77355;BMP280;66422;51.202;19.936;2023-04-25T13:55:47;98421.64;;;12.99
77355;BMP280;66422;51.202;19.936;2023-04-25T14:11:06;98424.23;;;13.06
77355;BMP280;66422;51.202;19.936;2023-04-25T14:26:26;98425.42;;;12.82
77355;BMP280;66422;51.202;19.936;2023-04-25T14:41:45;98430.35;;;12.35
77355;BMP280;66422;51.202;19.936;2023-04-25T14:57:05;98431.20;;;11.75
77355;BMP280;66422;51.202;19.936;2023-04-25T15:12:25;98432.89;;;11.77
77355;BMP280;66422;51.202;19.936;2023-04-25T15:27:47;98439.71;;;11.72
77355;BMP280;66422;51.202;19.936;2023-04-25T15:43:08;98446.10;;;11.29
77355;BMP280;66422;51.202;19.936;2023-04-25T15:58:34;98447.79;;;11.42
77355;BMP280;66422;51.202;19.936;2023-04-25T16:13:55;98440.43;;;11.08
77355;BMP280;66422;51.202;19.936;2023-04-25T16:29:14;98445.07;;;11.27
77355;BMP280;66422;51.202;19.936;2023-04-25T16:44:36;98456.36;;;11.38
77355;BMP280;66422;51.202;19.936;2023-04-25T16:59:56;98455.77;;;11.70
77355;BMP280;66422;51.202;19.936;2023-04-25T17:15:15;98459.55;;;11.71
77355;BMP280;66422;51.202;19.936;2023-04-25T17:30:35;98473.52;;;11.45
77355;BMP280;66422;51.202;19.936;2023-04-25T17:45:55;98478.77;;;11.26
77355;BMP280;66422;51.202;19.936;2023-04-25T18:01:15;98493.48;;;11.14
77355;BMP280;66422;51.202;19.936;2023-04-25T18:16:34;98504.73;;;10.97
77355;BMP280;66422;51.202;19.936;2023-04-25T18:31:54;98528.20;;;10.57
77355;BMP280;66422;51.202;19.936;2023-04-25T18:47:15;98553.88;;;10.36
77355;BMP280;66422;51.202;19.936;2023-04-25T19:02:35;98569.29;;;9.93
77355;BMP280;66422;51.202;19.936;2023-04-25T19:17:56;98588.58;;;9.72
77355;BMP280;66422;51.202;19.936;2023-04-25T19:33:16;98592.66;;;9.39
77355;BMP280;66422;51.202;19.936;2023-04-25T19:48:35;98602.27;;;9.37
77355;BMP280;66422;51.202;19.936;2023-04-25T20:03:55;98602.90;;;9.51
77355;BMP280;66422;51.202;19.936;2023-04-25T20:19:15;98602.05;;;9.59
77355;BMP280;66422;51.202;19.936;2023-04-25T20:34:34;98607.10;;;9.78
77355;BMP280;66422;51.202;19.936;2023-04-25T20:49:55;98615.48;;;9.85
77355;BMP280;66422;51.202;19.936;2023-04-25T21:05:15;98619.52;;;10.02
77355;BMP280;66422;51.202;19.936;2023-04-25T21:20:35;98630.09;;;9.95
77355;BMP280;66422;51.202;19.936;2023-04-25T21:35:55;98635.13;;;9.91
77355;BMP280;66422;51.202;19.936;2023-04-25T21:51:15;98650.91;;;9.72
77355;BMP280;66422;51.202;19.936;2023-04-25T22:06:36;98654.37;;;9.97
77355;BMP280;66422;51.202;19.936;2023-04-25T22:21:55;98664.00;;;9.71
77355;BMP280;66422;51.202;19.936;2023-04-25T22:37:15;98678.63;;;9.52
77355;BMP280;66422;51.202;19.936;2023-04-25T22:52:35;98696.98;;;9.33
77355;BMP280;66422;51.202;19.936;2023-04-25T23:07:56;98699.29;;;9.14
77355;BMP280;66422;51.202;19.936;2023-04-25T23:23:16;98696.55;;;9.55
77355;BMP280;66422;51.202;19.936;2023-04-25T23:38:36;98717.49;;;9.35
77355;BMP280;66422;51.202;19.936;2023-04-25T23:53:56;98718.77;;;9.11
